createdAt,value
2019-02-28T00:01:02.144Z,10.20
2019-02-28T00:03:31.135Z,10.97
2019-02-28T00:06:00.090Z,11.87
2019-02-28T00:08:29.066Z,12.80
2019-02-28T00:10:58.122Z,12.70
2019-02-28T00:13:27.082Z,12.07
2019-02-28T00:15:56.134Z,10.03
2019-02-28T00:18:25.092Z,11.17
2019-02-28T00:20:54.064Z,9.37
2019-02-28T00:23:23.022Z,8.90
2019-02-28T00:25:52.087Z,10.53
2019-02-28T00:28:23.091Z,9.93
2019-02-28T00:30:51.770Z,9.63
2019-02-28T00:33:20.738Z,11.10
2019-02-28T00:35:49.714Z,10.23
2019-02-28T00:38:18.666Z,13.00
2019-02-28T00:40:47.638Z,9.77
2019-02-28T00:43:16.594Z,10.00
2019-02-28T00:45:45.571Z,9.07
2019-02-28T00:48:14.533Z,10.33
2019-02-28T00:50:43.513Z,12.87
2019-02-28T00:53:12.551Z,9.47
2019-02-28T00:55:41.516Z,9.60
2019-02-28T00:58:10.489Z,9.83
2019-02-28T01:00:39.470Z,7.63
2019-02-28T01:03:08.438Z,8.97
2019-02-28T01:05:37.501Z,7.27
2019-02-28T01:08:06.567Z,10.80
2019-02-28T01:10:39.296Z,7.83
2019-02-28T01:13:06.272Z,9.07
2019-02-28T01:15:35.295Z,8.33
2019-02-28T01:18:04.388Z,6.47
2019-02-28T01:20:33.355Z,8.40
2019-02-28T01:23:02.305Z,9.70
2019-02-28T01:25:31.275Z,9.13
2019-02-28T01:28:00.235Z,7.33
2019-02-28T01:30:29.202Z,8.43
2019-02-28T01:32:58.158Z,9.80
2019-02-28T01:35:27.138Z,10.40
2019-02-28T01:37:56.096Z,7.73
2019-02-28T01:40:25.078Z,9.23
2019-02-28T01:42:55.005Z,8.43
2019-02-28T01:45:24.249Z,7.93
2019-02-28T01:47:53.270Z,9.00
2019-02-28T01:50:22.306Z,9.33
2019-02-28T01:52:51.341Z,10.67
2019-02-28T01:55:20.378Z,29.90
2019-02-28T01:57:49.335Z,9.47
2019-02-28T02:00:18.658Z,8.47
2019-02-28T02:02:47.633Z,12.33
2019-02-28T02:05:17.294Z,8.87
2019-02-28T02:07:47.115Z,8.73
2019-02-28T02:10:21.277Z,7.83
2019-02-28T02:12:51.574Z,10.30
2019-02-28T02:15:20.910Z,10.93
2019-02-28T02:17:49.874Z,9.23
2019-02-28T02:20:18.978Z,10.93
2019-02-28T02:22:47.956Z,9.20
2019-02-28T02:25:16.974Z,8.93
2019-02-28T02:27:45.951Z,10.63
2019-02-28T02:30:19.839Z,10.00
2019-02-28T02:32:48.819Z,9.53
2019-02-28T02:35:18.802Z,10.50
2019-02-28T02:37:47.759Z,9.30
2019-02-28T02:40:17.068Z,8.70
2019-02-28T02:42:48.906Z,11.23
2019-02-28T02:45:16.858Z,13.10
2019-02-28T02:47:45.907Z,10.37
2019-02-28T02:50:15.508Z,10.47
2019-02-28T02:52:44.554Z,11.53
2019-02-28T02:55:14.552Z,9.67
2019-02-28T02:57:50.582Z,9.77
2019-02-28T03:00:16.861Z,10.13
2019-02-28T03:02:45.910Z,12.33
2019-02-28T03:05:15.210Z,10.70
2019-02-28T03:07:44.330Z,9.27
2019-02-28T03:10:17.616Z,9.87
2019-02-28T03:12:46.159Z,8.37
2019-02-28T03:15:25.540Z,9.43
2019-02-28T03:17:48.753Z,9.47
2019-02-28T03:20:18.438Z,10.77
2019-02-28T03:22:47.457Z,8.87
2019-02-28T03:25:18.052Z,9.53
2019-02-28T03:27:47.013Z,8.03
2019-02-28T03:30:28.467Z,8.83
2019-02-28T03:32:48.951Z,8.50
2019-02-28T03:35:19.464Z,11.07
2019-02-28T03:37:48.459Z,10.07
2019-02-28T03:40:17.559Z,8.40
2019-02-28T03:42:48.836Z,8.93
2019-02-28T03:45:22.459Z,11.17
2019-02-28T03:47:58.747Z,9.13
2019-02-28T03:50:34.889Z,8.37
2019-02-28T03:53:05.703Z,9.77
2019-02-28T03:55:40.824Z,8.67
2019-02-28T03:58:13.342Z,8.30
2019-02-28T04:00:44.078Z,8.43
2019-02-28T04:03:13.100Z,9.37
2019-02-28T04:05:42.421Z,10.40
2019-02-28T04:08:11.443Z,10.67
2019-02-28T04:10:40.427Z,7.97
2019-02-28T04:13:09.374Z,9.37
2019-02-28T04:15:38.630Z,10.37
2019-02-28T04:18:08.569Z,10.73
2019-02-28T04:20:37.987Z,9.17
2019-02-28T04:23:07.177Z,11.63
2019-02-28T04:25:36.167Z,10.40
2019-02-28T04:28:05.124Z,8.40
2019-02-28T04:30:34.575Z,8.93
2019-02-28T04:33:03.540Z,11.97
2019-02-28T04:35:32.502Z,12.07
2019-02-28T04:38:01.468Z,11.13
2019-02-28T04:40:30.434Z,9.23
2019-02-28T04:42:59.409Z,12.00
2019-02-28T04:45:28.375Z,13.93
2019-02-28T04:47:57.353Z,11.57
2019-02-28T04:50:31.313Z,10.40
2019-02-28T04:52:57.078Z,8.63
2019-02-28T04:55:26.040Z,11.83
2019-02-28T04:57:55.069Z,10.20
2019-02-28T05:00:24.047Z,10.27
2019-02-28T05:02:54.800Z,9.70
2019-02-28T05:05:23.667Z,9.80
2019-02-28T05:07:52.633Z,12.17
2019-02-28T05:10:22.356Z,7.83
2019-02-28T05:12:52.026Z,9.43
2019-02-28T05:15:21.002Z,9.83
2019-02-28T05:17:49.965Z,10.60
2019-02-28T05:20:18.943Z,10.30
2019-02-28T05:22:47.894Z,11.20
2019-02-28T05:25:18.686Z,11.57
2019-02-28T05:27:47.529Z,8.97
2019-02-28T05:30:19.388Z,10.17
2019-02-28T05:32:48.120Z,12.63
2019-02-28T05:35:17.078Z,10.30
2019-02-28T05:37:48.315Z,10.83
2019-02-28T05:40:16.860Z,10.50
2019-02-28T05:42:45.843Z,11.20
2019-02-28T05:45:15.741Z,10.13
2019-02-28T05:47:47.258Z,12.97
2019-02-28T05:50:17.170Z,13.33
2019-02-28T05:52:46.494Z,11.77
2019-02-28T05:55:15.531Z,12.33
2019-02-28T05:57:44.936Z,13.30
2019-02-28T06:00:17.234Z,10.93
2019-02-28T06:02:46.209Z,13.43
2019-02-28T06:05:15.179Z,11.27
2019-02-28T06:07:44.234Z,11.17
2019-02-28T06:10:32.654Z,10.97
2019-02-28T06:13:01.630Z,13.27
2019-02-28T06:15:30.593Z,14.80
2019-02-28T06:17:59.591Z,11.13
2019-02-28T06:20:28.552Z,19.77
2019-02-28T06:22:57.593Z,14.50
2019-02-28T06:25:26.628Z,14.63
2019-02-28T06:27:55.612Z,17.40
2019-02-28T06:30:24.573Z,15.50
2019-02-28T06:32:57.838Z,15.50
2019-02-28T06:35:24.226Z,20.70
2019-02-28T06:37:53.233Z,14.90
2019-02-28T06:40:22.268Z,18.70
2019-02-28T06:42:51.242Z,15.83
2019-02-28T06:45:20.751Z,20.80
2019-02-28T06:47:50.176Z,19.93
2019-02-28T06:50:19.350Z,17.87
2019-02-28T06:52:48.326Z,20.30
2019-02-28T06:55:27.198Z,18.40
2019-02-28T06:57:58.973Z,18.87
2019-02-28T07:00:26.866Z,16.67
2019-02-28T07:02:55.842Z,21.67
2019-02-28T07:05:26.064Z,17.43
2019-02-28T07:07:55.430Z,21.33
2019-02-28T07:10:24.405Z,18.43
2019-02-28T07:12:53.436Z,17.80
2019-02-28T07:15:24.806Z,21.17
2019-02-28T07:17:53.183Z,20.47
2019-02-28T07:20:22.150Z,17.40
2019-02-28T07:22:54.702Z,16.23
2019-02-28T07:25:21.782Z,18.70
2019-02-28T07:27:50.767Z,20.13
2019-02-28T07:30:20.662Z,21.00
2019-02-28T07:32:49.727Z,23.10
2019-02-28T07:35:18.718Z,26.67
2019-02-28T07:37:53.373Z,25.27
2019-02-28T07:40:19.008Z,22.53
2019-02-28T07:42:48.057Z,21.90
2019-02-28T07:45:17.086Z,23.97
2019-02-28T07:47:51.713Z,23.17
2019-02-28T07:50:16.982Z,22.07
2019-02-28T07:52:45.963Z,22.77
2019-02-28T07:55:20.101Z,21.03
2019-02-28T07:57:54.255Z,22.60
2019-02-28T08:00:22.140Z,25.03
2019-02-28T08:02:51.176Z,20.17
2019-02-28T08:05:20.300Z,19.17
2019-02-28T08:07:52.258Z,18.43
2019-02-28T08:10:24.883Z,20.73
2019-02-28T08:12:58.368Z,19.17
2019-02-28T08:15:32.963Z,23.60
2019-02-28T08:18:09.011Z,22.50
2019-02-28T08:20:41.161Z,21.30
2019-02-28T08:23:14.615Z,21.93
2019-02-28T08:25:47.567Z,21.47
2019-02-28T08:28:16.633Z,23.17
2019-02-28T08:30:47.325Z,21.93
2019-02-28T08:33:17.128Z,24.63
2019-02-28T08:35:46.415Z,22.50
2019-02-28T08:38:15.533Z,22.90
2019-02-28T08:40:50.490Z,23.67
2019-02-28T08:43:15.288Z,21.73
2019-02-28T08:45:44.332Z,23.83
2019-02-28T08:48:13.401Z,21.97
2019-02-28T08:50:42.442Z,21.33
2019-02-28T08:53:12.384Z,23.10
2019-02-28T08:55:44.297Z,21.83
2019-02-28T08:58:12.903Z,26.23
2019-02-28T09:00:42.082Z,24.77
2019-02-28T09:03:11.078Z,22.43
2019-02-28T09:05:40.206Z,25.43
2019-02-28T09:08:09.267Z,22.10
2019-02-28T09:10:38.321Z,26.03
2019-02-28T09:13:08.781Z,23.80
2019-02-28T09:15:37.868Z,22.03
2019-02-28T09:18:07.391Z,24.80
2019-02-28T09:20:36.614Z,22.73
2019-02-28T09:23:06.365Z,24.03
2019-02-28T09:25:35.622Z,24.10
2019-02-28T09:28:05.154Z,23.53
2019-02-28T09:30:45.806Z,28.00
2019-02-28T09:33:14.796Z,25.77
2019-02-28T09:35:46.321Z,26.20
2019-02-28T09:38:14.609Z,33.23
2019-02-28T09:40:43.601Z,28.27
2019-02-28T09:43:12.575Z,26.83
2019-02-28T09:45:41.578Z,30.10
2019-02-28T09:48:10.582Z,32.70
2019-02-28T09:50:39.551Z,31.93
2019-02-28T09:53:08.550Z,30.53
2019-02-28T09:55:38.416Z,29.50
2019-02-28T09:58:08.275Z,30.23
2019-02-28T10:00:37.399Z,31.77
2019-02-28T10:03:06.901Z,28.93
2019-02-28T10:05:39.006Z,33.17
2019-02-28T10:08:07.175Z,31.17
2019-02-28T10:10:36.359Z,29.03
2019-02-28T10:13:05.410Z,26.10
2019-02-28T10:15:34.450Z,33.43
2019-02-28T10:18:04.290Z,30.77
2019-02-28T10:20:41.332Z,31.93
2019-02-28T10:23:10.490Z,31.93
2019-02-28T10:25:43.366Z,29.00
2019-02-28T10:28:10.259Z,27.87
2019-02-28T10:30:39.238Z,32.97
2019-02-28T10:33:08.241Z,30.07
2019-02-28T10:35:37.726Z,33.30
2019-02-28T10:38:07.015Z,28.70
2019-02-28T10:40:35.993Z,28.80
2019-02-28T10:43:05.043Z,30.60
2019-02-28T10:45:34.087Z,32.20
2019-02-28T10:48:03.999Z,31.93
2019-02-28T10:50:38.008Z,33.53
2019-02-28T10:53:07.151Z,32.70
2019-02-28T10:55:36.258Z,31.03
2019-02-28T10:58:05.319Z,28.43
2019-02-28T11:00:37.873Z,32.60
2019-02-28T11:03:06.918Z,33.13
2019-02-28T11:05:41.704Z,28.90
2019-02-28T11:08:14.792Z,33.13
2019-02-28T11:10:45.499Z,31.77
2019-02-28T11:13:21.994Z,30.53
2019-02-28T11:15:51.118Z,32.13
2019-02-28T11:18:20.379Z,29.23
2019-02-28T11:20:49.431Z,36.13
2019-02-28T11:23:18.779Z,37.80
2019-02-28T11:25:47.819Z,34.63
2019-02-28T11:28:17.088Z,30.73
2019-02-28T11:30:47.783Z,31.77
2019-02-28T11:33:18.398Z,33.13
2019-02-28T11:35:47.703Z,32.97
2019-02-28T11:38:20.351Z,35.53
2019-02-28T11:40:56.738Z,34.80
2019-02-28T11:43:18.831Z,30.93
2019-02-28T11:45:48.235Z,33.23
2019-02-28T11:48:27.790Z,34.60
2019-02-28T11:50:56.893Z,33.10
2019-02-28T11:53:25.885Z,27.93
2019-02-28T11:55:54.851Z,31.17
2019-02-28T11:58:23.842Z,33.47
2019-02-28T12:00:52.885Z,32.73
2019-02-28T12:03:21.867Z,33.70
2019-02-28T12:05:51.345Z,31.37
2019-02-28T12:08:22.305Z,31.10
2019-02-28T12:10:51.449Z,37.27
2019-02-28T12:13:20.661Z,30.77
2019-02-28T12:15:49.817Z,32.60
2019-02-28T12:18:18.871Z,27.97
2019-02-28T12:20:47.868Z,28.17
2019-02-28T12:23:16.905Z,26.70
2019-02-28T12:25:45.893Z,26.67
2019-02-28T12:28:14.936Z,24.20
2019-02-28T12:30:43.906Z,27.03
2019-02-28T12:33:15.445Z,26.57
2019-02-28T12:35:43.558Z,28.07
2019-02-28T12:38:12.615Z,30.87
2019-02-28T12:40:45.698Z,30.13
2019-02-28T12:43:14.561Z,29.40
2019-02-28T12:45:47.407Z,26.40
2019-02-28T12:48:16.438Z,25.00
2019-02-28T12:50:45.505Z,24.47
2019-02-28T12:53:14.543Z,22.43
2019-02-28T12:55:43.587Z,24.13
2019-02-28T12:58:12.659Z,25.70
2019-02-28T13:00:44.725Z,22.67
2019-02-28T13:03:19.146Z,22.60
2019-02-28T13:05:48.030Z,21.73
2019-02-28T13:08:15.351Z,20.57
2019-02-28T13:10:44.324Z,20.93
2019-02-28T13:13:13.472Z,19.70
2019-02-28T13:15:45.423Z,16.27
2019-02-28T13:18:13.213Z,18.47
2019-02-28T13:20:42.435Z,24.27
2019-02-28T13:23:11.404Z,17.30
2019-02-28T13:25:40.499Z,19.57
2019-02-28T13:28:09.483Z,18.83
2019-02-28T13:30:40.251Z,18.60
2019-02-28T13:33:11.103Z,20.00
2019-02-28T13:35:46.029Z,19.20
2019-02-28T13:38:17.403Z,19.70
2019-02-28T13:40:44.859Z,20.73
2019-02-28T13:43:20.195Z,17.53
2019-02-28T13:45:44.819Z,16.60
2019-02-28T13:48:13.833Z,22.17
2019-02-28T13:50:42.863Z,19.00
2019-02-28T13:53:19.137Z,19.33
2019-02-28T13:55:43.015Z,16.80
2019-02-28T13:58:11.993Z,19.40
2019-02-28T14:00:45.553Z,20.63
2019-02-28T14:03:17.053Z,18.47
2019-02-28T14:05:45.717Z,17.80
2019-02-28T14:08:14.757Z,18.77
2019-02-28T14:10:44.079Z,18.80
2019-02-28T14:13:13.080Z,19.00
2019-02-28T14:15:43.838Z,21.43
2019-02-28T14:18:14.252Z,21.20
2019-02-28T14:20:43.303Z,20.57
2019-02-28T14:23:12.705Z,22.13
2019-02-28T14:25:41.791Z,21.17
2019-02-28T14:28:11.048Z,22.53
2019-02-28T14:30:40.044Z,23.87
2019-02-28T14:33:09.462Z,24.57
2019-02-28T14:35:38.918Z,25.40
2019-02-28T14:38:08.243Z,23.67
2019-02-28T14:40:37.312Z,23.23
2019-02-28T14:43:06.348Z,26.17
2019-02-28T14:45:44.054Z,23.73
2019-02-28T14:48:13.262Z,22.57
2019-02-28T14:50:42.409Z,28.30
2019-02-28T14:53:14.402Z,22.93
2019-02-28T14:55:42.207Z,25.60
2019-02-28T14:58:11.182Z,28.30
2019-02-28T15:00:42.453Z,26.70
2019-02-28T15:03:10.939Z,30.03
2019-02-28T15:05:43.543Z,26.83
2019-02-28T15:08:15.458Z,25.37
2019-02-28T15:10:43.287Z,26.43
2019-02-28T15:13:12.249Z,26.30
2019-02-28T15:15:41.311Z,27.53
2019-02-28T15:18:12.257Z,27.87
2019-02-28T15:20:41.119Z,30.10
2019-02-28T15:23:10.175Z,29.70
2019-02-28T15:25:39.154Z,30.80
2019-02-28T15:28:10.726Z,25.73
2019-02-28T15:30:41.022Z,27.63
2019-02-28T15:33:10.072Z,27.30
2019-02-28T15:35:39.203Z,31.87
2019-02-28T15:38:09.119Z,38.67
2019-02-28T15:40:44.391Z,24.37
2019-02-28T15:43:16.877Z,27.77
2019-02-28T15:45:44.143Z,26.33
2019-02-28T15:48:13.195Z,29.13
2019-02-28T15:50:42.174Z,27.47
2019-02-28T15:53:14.214Z,30.33
2019-02-28T15:55:41.909Z,32.00
2019-02-28T15:58:10.956Z,27.90
2019-02-28T16:00:40.096Z,25.70
2019-02-28T16:03:09.169Z,31.83
2019-02-28T16:05:42.731Z,27.10
2019-02-28T16:08:10.533Z,28.73
2019-02-28T16:10:39.815Z,27.50
2019-02-28T16:13:08.860Z,29.03
2019-02-28T16:15:37.847Z,30.67
2019-02-28T16:18:08.716Z,29.80
2019-02-28T16:20:38.280Z,29.87
2019-02-28T16:23:07.620Z,33.17
2019-02-28T16:25:38.207Z,35.63
2019-02-28T16:28:10.275Z,35.30
2019-02-28T16:30:39.975Z,31.10
2019-02-28T16:33:09.073Z,28.67
2019-02-28T16:35:38.049Z,32.47
2019-02-28T16:38:09.901Z,33.23
2019-02-28T16:40:37.739Z,32.07
2019-02-28T16:43:06.804Z,29.73
2019-02-28T16:45:40.482Z,29.07
2019-02-28T16:48:08.311Z,30.47
2019-02-28T16:50:37.550Z,25.53
2019-02-28T16:53:06.690Z,30.40
2019-02-28T16:55:35.666Z,30.07
2019-02-28T16:58:04.736Z,26.97
2019-02-28T17:00:33.866Z,31.07
2019-02-28T17:03:03.958Z,28.20
2019-02-28T17:05:33.672Z,22.73
2019-02-28T17:08:03.736Z,28.00
2019-02-28T17:10:40.125Z,22.43
2019-02-28T17:13:12.408Z,18.87
2019-02-28T17:15:55.780Z,21.87
2019-02-28T17:18:30.621Z,19.77
2019-02-28T17:20:59.680Z,20.97
2019-02-28T17:23:28.660Z,17.23
2019-02-28T17:25:57.706Z,20.07
2019-02-28T17:28:31.335Z,18.20
2019-02-28T17:31:18.223Z,18.57
2019-02-28T17:33:47.945Z,16.23
2019-02-28T17:36:17.056Z,17.87
2019-02-28T17:39:06.774Z,15.10
2019-02-28T17:41:37.155Z,15.77
2019-02-28T17:44:24.508Z,11.23
2019-02-28T17:46:56.906Z,12.03
2019-02-28T17:49:38.473Z,11.93
2019-02-28T17:52:30.559Z,10.43
2019-02-28T17:55:19.136Z,9.60
2019-02-28T17:57:53.895Z,11.60
2019-02-28T18:00:57.946Z,9.77
2019-02-28T18:03:48.143Z,9.60
2019-02-28T18:06:30.636Z,9.93
2019-02-28T18:24:10.979Z,7.60
2019-02-28T18:26:48.796Z,8.73
2019-02-28T18:29:26.698Z,8.80
2019-02-28T18:31:57.136Z,6.70
2019-02-28T18:34:26.354Z,8.53
2019-02-28T18:36:55.438Z,10.07
2019-02-28T18:39:25.445Z,9.23
2019-02-28T18:41:54.730Z,9.53
2019-02-28T18:44:23.792Z,8.03
2019-02-28T18:46:52.824Z,11.97
2019-02-28T18:49:21.846Z,11.83
2019-02-28T18:51:50.924Z,8.70
2019-02-28T18:54:20.084Z,11.97
2019-02-28T18:56:49.059Z,11.90
2019-02-28T18:59:18.055Z,11.53
2019-02-28T19:01:47.179Z,11.03
2019-02-28T19:04:16.193Z,8.77
2019-02-28T19:06:45.158Z,16.60
2019-02-28T19:09:19.613Z,12.87
2019-02-28T19:11:48.659Z,11.63
2019-02-28T19:14:17.731Z,11.00
2019-02-28T19:16:46.715Z,14.63
2019-02-28T19:19:15.698Z,15.83
2019-02-28T19:21:44.766Z,13.90
2019-02-28T19:24:13.752Z,12.37
2019-02-28T19:26:42.727Z,16.80
2019-02-28T19:29:11.736Z,14.00
2019-02-28T19:31:40.792Z,15.30
2019-02-28T19:34:09.859Z,16.57
2019-02-28T19:36:38.882Z,16.23
2019-02-28T19:39:07.987Z,17.67
2019-02-28T19:41:36.992Z,16.43
2019-02-28T19:44:06.019Z,14.87
2019-02-28T19:46:34.994Z,14.93
2019-02-28T19:49:04.076Z,15.20
2019-02-28T19:51:33.058Z,17.67
2019-02-28T19:54:02.050Z,17.50
2019-02-28T19:56:31.094Z,17.17
2019-02-28T19:59:00.115Z,13.77
2019-02-28T20:01:29.093Z,14.27
2019-02-28T20:03:58.168Z,15.00
2019-02-28T20:06:27.147Z,15.30
2019-02-28T20:08:56.166Z,15.27
2019-02-28T20:11:25.215Z,14.43
2019-02-28T20:13:54.208Z,16.60
2019-02-28T20:16:23.263Z,14.73
2019-02-28T20:18:52.239Z,16.47
2019-02-28T20:21:21.308Z,14.53
2019-02-28T20:23:50.446Z,17.53
2019-02-28T20:26:19.439Z,17.13
2019-02-28T20:28:48.422Z,18.57
2019-02-28T20:31:17.495Z,18.20
2019-02-28T20:33:46.479Z,21.43
2019-02-28T20:36:15.492Z,21.97
2019-02-28T20:38:44.563Z,19.17
2019-02-28T20:41:13.555Z,17.63
2019-02-28T20:43:42.546Z,20.23
2019-02-28T20:46:11.562Z,18.67
2019-02-28T20:48:40.543Z,25.93
2019-02-28T20:51:09.544Z,17.90
2019-02-28T20:53:38.582Z,16.53
2019-02-28T20:56:07.558Z,18.57
2019-02-28T20:58:36.553Z,19.43
2019-02-28T21:01:05.748Z,19.13
2019-02-28T21:03:34.735Z,21.97
2019-02-28T21:06:03.738Z,17.80
2019-02-28T21:08:32.738Z,19.37
2019-02-28T21:11:01.816Z,17.67
2019-02-28T21:13:30.865Z,17.57
2019-02-28T21:15:59.916Z,19.13
2019-02-28T21:18:28.973Z,20.87
2019-02-28T21:20:57.950Z,17.57
2019-02-28T21:23:26.939Z,18.97
2019-02-28T21:25:57.385Z,18.83
2019-02-28T21:28:26.489Z,17.60
2019-02-28T21:30:55.478Z,18.40
2019-02-28T21:33:24.462Z,19.27
2019-02-28T21:35:53.458Z,19.20
2019-02-28T21:38:22.539Z,18.17
2019-02-28T21:40:51.659Z,20.30
2019-02-28T21:43:20.649Z,15.97
2019-02-28T21:45:49.737Z,21.87
2019-02-28T21:48:18.731Z,19.63
2019-02-28T21:50:47.717Z,18.67
2019-02-28T21:53:16.775Z,18.43
2019-02-28T21:55:45.830Z,22.37
2019-02-28T21:58:14.815Z,18.47
2019-02-28T22:00:43.871Z,21.97
2019-02-28T22:03:12.935Z,21.97
2019-02-28T22:05:41.939Z,19.33
2019-02-28T22:08:10.931Z,23.13
2019-02-28T22:10:39.917Z,18.90
2019-02-28T22:13:08.903Z,16.73
2019-02-28T22:15:37.912Z,18.33
2019-02-28T22:18:06.882Z,19.80
2019-02-28T22:20:36.802Z,18.83
2019-02-28T22:23:05.970Z,20.30
2019-02-28T22:25:34.967Z,17.43
2019-02-28T22:28:04.007Z,16.47
2019-02-28T22:30:34.642Z,19.10
2019-02-28T22:33:05.258Z,16.07
2019-02-28T22:35:35.891Z,19.27
2019-02-28T22:38:04.951Z,21.87
2019-02-28T22:40:33.941Z,17.53
2019-02-28T22:43:02.908Z,18.10
2019-02-28T22:45:31.886Z,16.37
2019-02-28T22:48:00.890Z,20.17
2019-02-28T22:50:29.851Z,17.93
2019-02-28T22:52:58.919Z,17.67
2019-02-28T22:55:27.894Z,17.40
2019-02-28T22:57:56.973Z,20.70
2019-02-28T23:00:52.050Z,24.57
2019-02-28T23:03:21.472Z,18.33
2019-02-28T23:05:50.431Z,18.23
2019-02-28T23:08:19.489Z,16.27
2019-02-28T23:10:48.462Z,18.93
2019-02-28T23:13:17.451Z,17.97
2019-02-28T23:15:46.421Z,18.63
2019-02-28T23:18:15.423Z,19.47
2019-02-28T23:20:44.531Z,23.20
2019-02-28T23:23:13.521Z,21.23
2019-02-28T23:25:42.483Z,21.87
2019-02-28T23:28:23.169Z,16.50
2019-02-28T23:31:01.050Z,17.00
2019-02-28T23:33:30.038Z,18.33
2019-02-28T23:35:59.075Z,19.80
2019-02-28T23:38:28.069Z,19.40
2019-02-28T23:40:57.105Z,17.60
2019-02-28T23:43:26.090Z,15.70
2019-02-28T23:45:55.078Z,15.57
2019-02-28T23:48:24.066Z,18.57
2019-02-28T23:50:53.044Z,14.60
2019-02-28T23:53:22.040Z,14.97
2019-02-28T23:55:51.021Z,15.53
2019-02-28T23:58:20.004Z,14.77
